createdAt,value
2018-10-03T00:00:02.394Z,11.73
2018-10-03T00:02:38.160Z,11.73
2018-10-03T00:05:07.374Z,11.81
2018-10-03T00:07:40.163Z,11.85
2018-10-03T00:10:08.838Z,11.97
2018-10-03T00:12:38.057Z,11.92
2018-10-03T00:15:07.207Z,11.76
2018-10-03T00:17:37.441Z,11.56
2018-10-03T00:20:06.629Z,11.72
2018-10-03T00:22:38.202Z,11.78
2018-10-03T00:25:07.365Z,11.81
2018-10-03T00:27:46.093Z,11.86
2018-10-03T00:30:15.078Z,11.73
2018-10-03T00:32:44.074Z,11.80
2018-10-03T00:35:13.153Z,11.86
2018-10-03T00:37:42.459Z,11.77
2018-10-03T00:40:11.506Z,11.61
2018-10-03T00:42:41.004Z,11.58
2018-10-03T00:45:10.002Z,11.54
2018-10-03T00:47:41.482Z,11.56
2018-10-03T00:50:10.538Z,11.39
2018-10-03T00:52:39.690Z,11.26
2018-10-03T00:55:09.152Z,11.23
2018-10-03T00:57:38.256Z,11.23
2018-10-03T01:00:07.609Z,11.16
2018-10-03T01:02:36.770Z,11.30
2018-10-03T01:05:06.159Z,11.53
2018-10-03T01:07:40.120Z,11.40
2018-10-03T01:10:09.152Z,11.57
2018-10-03T01:12:38.163Z,11.49
2018-10-03T01:15:07.394Z,11.52
2018-10-03T01:17:36.862Z,11.59
2018-10-03T01:20:06.879Z,11.50
2018-10-03T01:22:36.630Z,11.35
2018-10-03T01:25:06.004Z,11.26
2018-10-03T01:27:40.623Z,11.26
2018-10-03T01:30:09.719Z,11.23
2018-10-03T01:32:38.979Z,11.10
2018-10-03T01:35:08.124Z,11.06
2018-10-03T01:37:37.236Z,11.10
2018-10-03T01:40:06.360Z,11.02
2018-10-03T01:42:37.933Z,11.07
2018-10-03T01:45:07.042Z,10.95
2018-10-03T01:47:40.370Z,10.99
2018-10-03T01:50:09.402Z,10.98
2018-10-03T01:52:38.473Z,11.02
2018-10-03T01:55:07.585Z,11.00
2018-10-03T01:57:36.800Z,11.10
2018-10-03T02:00:05.972Z,11.19
2018-10-03T02:02:42.516Z,11.15
2018-10-03T02:05:11.549Z,10.93
2018-10-03T02:07:41.982Z,10.89
2018-10-03T02:10:11.061Z,10.90
2018-10-03T02:12:40.394Z,10.94
2018-10-03T02:15:09.671Z,10.91
2018-10-03T02:17:38.729Z,10.88
2018-10-03T02:20:08.669Z,10.98
2018-10-03T02:22:38.508Z,11.08
2018-10-03T02:25:07.777Z,10.95
2018-10-03T02:27:37.444Z,10.94
2018-10-03T02:30:07.304Z,10.91
2018-10-03T02:32:36.833Z,10.89
2018-10-03T02:35:06.003Z,10.92
2018-10-03T02:37:35.608Z,10.96
2018-10-03T02:40:04.816Z,11.05
2018-10-03T02:42:37.944Z,11.05
2018-10-03T02:45:07.106Z,11.06
2018-10-03T02:47:40.357Z,11.08
2018-10-03T02:50:09.504Z,11.01
2018-10-03T02:52:39.323Z,11.05
2018-10-03T02:55:07.903Z,11.02
2018-10-03T02:57:37.309Z,10.97
2018-10-03T03:00:06.439Z,11.10
2018-10-03T03:02:45.273Z,11.05
2018-10-03T03:05:14.315Z,11.03
2018-10-03T03:07:44.064Z,10.99
2018-10-03T03:10:13.128Z,10.93
2018-10-03T03:12:42.082Z,10.87
2018-10-03T03:15:11.154Z,10.78
2018-10-03T03:17:40.319Z,10.85
2018-10-03T03:20:09.513Z,10.90
2018-10-03T03:22:39.290Z,10.93
2018-10-03T03:25:08.368Z,10.93
2018-10-03T03:27:40.870Z,10.91
2018-10-03T03:30:09.884Z,10.82
2018-10-03T03:32:39.081Z,10.69
2018-10-03T03:35:08.274Z,10.73
2018-10-03T03:37:37.403Z,10.89
2018-10-03T03:40:06.446Z,10.88
2018-10-03T03:42:37.757Z,10.90
2018-10-03T03:45:06.790Z,10.90
2018-10-03T03:47:40.163Z,10.96
2018-10-03T03:50:09.214Z,10.87
2018-10-03T03:52:38.550Z,10.85
2018-10-03T03:55:07.692Z,10.79
2018-10-03T03:57:37.214Z,10.81
2018-10-03T04:00:06.356Z,10.85
2018-10-03T04:02:35.444Z,10.87
2018-10-03T04:05:04.461Z,10.82
2018-10-03T04:07:40.580Z,10.93
2018-10-03T04:10:09.608Z,10.92
2018-10-03T04:12:38.738Z,10.91
2018-10-03T04:15:07.857Z,10.96
2018-10-03T04:17:37.734Z,10.98
2018-10-03T04:20:06.998Z,11.00
2018-10-03T04:22:38.208Z,10.91
2018-10-03T04:25:07.284Z,10.95
2018-10-03T04:27:41.027Z,10.95
2018-10-03T04:30:10.021Z,10.97
2018-10-03T04:32:39.315Z,10.95
2018-10-03T04:35:08.345Z,10.93
2018-10-03T04:37:37.568Z,10.98
2018-10-03T04:40:06.649Z,10.97
2018-10-03T04:42:44.035Z,11.02
2018-10-03T04:45:14.115Z,11.06
2018-10-03T04:47:46.813Z,11.00
2018-10-03T04:50:17.515Z,10.97
2018-10-03T04:52:48.070Z,10.95
2018-10-03T04:55:19.347Z,10.99
2018-10-03T04:57:48.593Z,11.01
2018-10-03T05:00:21.853Z,10.97
2018-10-03T05:02:59.606Z,11.01
2018-10-03T05:05:30.359Z,10.91
2018-10-03T05:08:07.264Z,10.82
2018-10-03T05:10:36.832Z,10.88
2018-10-03T05:13:10.473Z,10.83
2018-10-03T05:15:42.001Z,10.89
2018-10-03T05:18:12.189Z,11.00
2018-10-03T05:20:43.311Z,11.00
2018-10-03T05:23:13.515Z,10.94
2018-10-03T05:25:42.574Z,10.99
2018-10-03T05:28:11.985Z,11.11
2018-10-03T05:30:41.079Z,11.21
2018-10-03T05:33:11.359Z,11.44
2018-10-03T05:35:41.167Z,11.67
2018-10-03T05:38:10.632Z,12.04
2018-10-03T05:40:40.329Z,12.44
2018-10-03T05:43:09.438Z,12.91
2018-10-03T05:45:38.471Z,12.94
2018-10-03T05:48:08.117Z,13.46
2018-10-03T05:50:37.241Z,13.63
2018-10-03T05:53:06.368Z,13.92
2018-10-03T05:55:35.369Z,14.24
2018-10-03T05:58:04.427Z,14.48
2018-10-03T06:00:33.956Z,14.82
2018-10-03T06:03:08.599Z,14.90
2018-10-03T06:05:37.689Z,15.04
2018-10-03T06:08:06.752Z,15.29
2018-10-03T06:10:35.861Z,15.55
2018-10-03T06:13:05.466Z,15.65
2018-10-03T06:15:34.897Z,15.94
2018-10-03T06:18:04.182Z,15.90
2018-10-03T06:20:33.625Z,16.13
2018-10-03T06:23:03.072Z,16.41
2018-10-03T06:25:33.133Z,16.44
2018-10-03T06:41:18.846Z,17.24
2018-10-03T06:43:47.993Z,17.75
2018-10-03T06:46:21.865Z,18.09
2018-10-03T06:48:51.214Z,18.50
2018-10-03T06:51:24.848Z,18.62
2018-10-03T06:53:54.200Z,19.02
2018-10-03T06:56:28.483Z,19.31
2018-10-03T06:58:57.912Z,19.45
2018-10-03T07:01:27.212Z,20.06
2018-10-03T07:04:02.514Z,20.09
2018-10-03T07:06:36.376Z,20.05
2018-10-03T07:09:07.624Z,20.22
2018-10-03T07:11:45.625Z,20.51
2018-10-03T07:14:15.221Z,20.35
2018-10-03T07:16:51.696Z,20.37
2018-10-03T07:19:21.096Z,20.65
2018-10-03T07:21:55.771Z,20.32
2018-10-03T07:24:25.264Z,20.82
2018-10-03T07:27:00.551Z,21.41
2018-10-03T07:29:30.335Z,21.47
2018-10-03T07:32:02.918Z,21.05
2018-10-03T07:34:32.356Z,21.23
2018-10-03T07:37:05.956Z,21.47
2018-10-03T07:39:35.154Z,21.39
2018-10-03T07:42:09.408Z,21.41
2018-10-03T07:44:38.566Z,21.23
2018-10-03T07:47:13.572Z,20.44
2018-10-03T07:49:42.677Z,20.69
2018-10-03T07:52:22.006Z,21.21
2018-10-03T07:54:51.077Z,21.59
2018-10-03T07:57:29.690Z,22.19
2018-10-03T07:59:58.770Z,22.27
2018-10-03T08:02:32.423Z,22.24
2018-10-03T08:05:01.545Z,22.71
2018-10-03T08:07:38.828Z,23.23
2018-10-03T08:10:07.968Z,23.21
2018-10-03T08:12:38.001Z,23.03
2018-10-03T08:15:07.688Z,22.60
2018-10-03T08:17:37.200Z,22.40
2018-10-03T08:20:06.789Z,22.48
2018-10-03T08:22:38.157Z,23.50
2018-10-03T08:25:07.798Z,23.57
2018-10-03T08:27:40.948Z,24.29
2018-10-03T08:30:10.161Z,23.78
2018-10-03T08:32:39.466Z,24.87
2018-10-03T08:35:08.592Z,25.01
2018-10-03T08:37:38.083Z,24.80
2018-10-03T08:40:07.194Z,24.63
2018-10-03T08:42:37.834Z,24.76
2018-10-03T08:45:07.223Z,24.64
2018-10-03T08:47:41.413Z,24.59
2018-10-03T08:50:12.249Z,25.25
2018-10-03T08:52:41.425Z,25.38
2018-10-03T08:55:10.641Z,25.37
2018-10-03T08:58:00.290Z,25.90
2018-10-03T09:00:32.601Z,25.98
2018-10-03T09:03:14.977Z,25.70
2018-10-03T09:05:44.681Z,26.26
2018-10-03T09:08:18.740Z,25.60
2018-10-03T09:10:49.727Z,25.16
2018-10-03T09:13:27.949Z,25.53
2018-10-03T09:15:56.987Z,26.30
2018-10-03T09:18:26.387Z,26.31
2018-10-03T09:20:55.764Z,26.51
2018-10-03T09:23:25.507Z,25.91
2018-10-03T09:25:55.045Z,25.72
2018-10-03T09:28:24.759Z,25.89
2018-10-03T09:30:53.717Z,26.03
2018-10-03T09:33:22.845Z,26.09
2018-10-03T09:35:52.226Z,26.75
2018-10-03T09:38:21.349Z,26.58
2018-10-03T09:40:50.770Z,25.48
2018-10-03T09:43:19.770Z,25.86
2018-10-03T09:45:48.756Z,26.38
2018-10-03T09:57:00.973Z,26.82
2018-10-03T09:59:30.119Z,26.45
2018-10-03T10:01:59.205Z,26.60
2018-10-03T10:04:37.839Z,27.02
2018-10-03T10:07:10.758Z,26.97
2018-10-03T10:09:39.846Z,25.96
2018-10-03T10:12:18.661Z,25.84
2018-10-03T10:14:47.693Z,24.40
2018-10-03T10:17:26.487Z,25.41
2018-10-03T10:19:55.791Z,25.63
2018-10-03T10:22:34.714Z,25.32
2018-10-03T10:25:04.118Z,25.53
2018-10-03T10:27:39.718Z,25.28
2018-10-03T10:30:08.869Z,25.32
2018-10-03T10:32:38.071Z,26.23
2018-10-03T10:35:07.344Z,26.62
2018-10-03T10:37:36.677Z,26.39
2018-10-03T10:40:05.879Z,26.48
2018-10-03T10:42:37.250Z,26.39
2018-10-03T10:45:06.751Z,25.71
2018-10-03T10:47:40.584Z,26.38
2018-10-03T10:50:09.639Z,27.14
2018-10-03T10:52:38.759Z,27.30
2018-10-03T10:55:07.809Z,27.33
2018-10-03T10:57:37.560Z,27.34
2018-10-03T11:00:06.803Z,27.37
2018-10-03T11:02:43.776Z,27.13
2018-10-03T11:05:13.244Z,27.07
2018-10-03T11:07:43.276Z,27.18
2018-10-03T11:10:12.361Z,26.02
2018-10-03T11:12:41.668Z,25.20
2018-10-03T11:15:11.024Z,25.10
2018-10-03T11:17:40.163Z,25.39
2018-10-03T11:20:09.214Z,24.81
2018-10-03T11:22:40.252Z,25.78
2018-10-03T11:25:09.322Z,26.25
2018-10-03T11:27:41.116Z,27.03
2018-10-03T11:30:10.157Z,27.48
2018-10-03T11:32:40.969Z,28.24
2018-10-03T11:35:10.089Z,27.55
2018-10-03T11:37:40.569Z,27.92
2018-10-03T11:40:09.730Z,27.97
2018-10-03T11:42:39.543Z,28.45
2018-10-03T11:45:08.748Z,27.65
2018-10-03T11:50:44.673Z,27.61
2018-10-03T11:53:13.680Z,27.29
2018-10-03T11:55:42.706Z,27.51
2018-10-03T11:58:11.894Z,27.52
2018-10-03T12:00:41.163Z,28.18
2018-10-03T12:03:14.398Z,27.78
2018-10-03T12:05:43.298Z,28.14
2018-10-03T12:08:12.367Z,28.42
2018-10-03T12:10:41.474Z,28.40
2018-10-03T12:13:10.481Z,28.54
2018-10-03T12:15:39.572Z,28.60
2018-10-03T12:18:08.744Z,28.32
2018-10-03T12:20:37.782Z,28.69
2018-10-03T12:23:06.741Z,28.54
2018-10-03T12:25:35.858Z,28.53
2018-10-03T12:28:04.854Z,28.58
2018-10-03T12:30:34.330Z,28.19
2018-10-03T12:33:03.389Z,28.01
2018-10-03T12:35:34.621Z,27.49
2018-10-03T12:38:04.099Z,27.91
2018-10-03T12:40:33.956Z,27.57
2018-10-03T12:43:03.046Z,27.53
2018-10-03T12:45:33.175Z,27.30
2018-10-03T12:48:02.562Z,27.76
2018-10-03T12:50:32.266Z,28.02
2018-10-03T12:53:01.466Z,28.01
2018-10-03T12:55:30.819Z,27.88
2018-10-03T12:58:00.021Z,27.30
2018-10-03T13:00:32.076Z,26.95
2018-10-03T13:03:05.256Z,27.38
2018-10-03T13:05:34.527Z,27.38
2018-10-03T13:08:03.663Z,27.34
2018-10-03T13:10:33.630Z,26.98
2018-10-03T13:13:02.727Z,26.85
2018-10-03T13:15:32.383Z,27.15
2018-10-03T13:18:01.544Z,27.05
2018-10-03T13:20:31.106Z,26.80
2018-10-03T13:23:07.819Z,27.21
2018-10-03T13:25:37.853Z,26.46
2018-10-03T13:28:06.949Z,25.54
2018-10-03T13:30:36.042Z,25.68
2018-10-03T13:33:05.400Z,26.07
2018-10-03T13:35:34.376Z,25.09
2018-10-03T13:38:03.313Z,24.47
2018-10-03T13:40:33.126Z,24.40
2018-10-03T13:43:02.112Z,23.69
2018-10-03T13:45:32.373Z,23.54
2018-10-03T13:48:02.220Z,23.42
2018-10-03T13:50:31.609Z,23.48
2018-10-03T13:53:00.636Z,23.70
2018-10-03T13:55:30.073Z,23.93
2018-10-03T13:57:59.413Z,23.27
2018-10-03T14:00:28.470Z,23.52
2018-10-03T14:03:00.340Z,24.02
2018-10-03T14:05:29.868Z,23.71
2018-10-03T14:08:03.245Z,23.27
2018-10-03T14:10:32.845Z,22.47
2018-10-03T14:13:02.172Z,22.06
2018-10-03T14:15:31.729Z,21.79
2018-10-03T14:18:06.003Z,21.67
2018-10-03T14:20:35.745Z,21.61
2018-10-03T14:23:05.115Z,21.64
2018-10-03T14:25:34.521Z,21.65
2018-10-03T14:28:03.640Z,21.62
2018-10-03T14:30:33.097Z,21.52
2018-10-03T14:33:02.218Z,21.53
2018-10-03T14:42:02.192Z,21.50
2018-10-03T14:44:31.621Z,21.39
2018-10-03T14:47:04.783Z,21.41
2018-10-03T14:49:33.827Z,21.36
2018-10-03T14:52:07.260Z,21.32
2018-10-03T14:54:36.373Z,21.29
2018-10-03T14:57:09.895Z,21.30
2018-10-03T14:59:39.294Z,21.37
2018-10-03T15:02:15.354Z,21.33
2018-10-03T15:04:44.478Z,21.28
2018-10-03T15:07:26.969Z,21.20
2018-10-03T15:10:18.201Z,21.10
2018-10-03T15:13:09.852Z,21.01
2018-10-03T15:15:56.010Z,20.89
2018-10-03T15:21:43.191Z,20.81
2018-10-03T15:24:12.347Z,20.71
2018-10-03T15:26:46.938Z,20.59
2018-10-03T15:29:16.048Z,20.56
2018-10-03T15:31:50.404Z,20.52
2018-10-03T15:34:19.530Z,20.49
2018-10-03T15:36:55.642Z,20.44
2018-10-03T15:39:24.791Z,20.36
2018-10-03T15:42:01.107Z,20.43
2018-10-03T15:44:30.679Z,20.37
2018-10-03T15:47:03.748Z,20.36
2018-10-03T15:49:33.447Z,20.27
2018-10-03T15:52:07.505Z,20.19
2018-10-03T15:54:36.762Z,20.08
2018-10-03T15:57:08.547Z,20.09
2018-10-03T15:59:37.677Z,20.00
2018-10-03T16:02:07.069Z,19.96
2018-10-03T16:04:43.267Z,19.82
2018-10-03T16:07:16.517Z,19.68
2018-10-03T16:09:45.708Z,19.62
2018-10-03T16:12:23.183Z,19.69
2018-10-03T16:14:52.271Z,19.62
2018-10-03T16:17:30.788Z,19.50
2018-10-03T16:20:00.503Z,19.40
2018-10-03T16:22:37.059Z,19.33
2018-10-03T16:25:06.306Z,19.18
2018-10-03T16:27:45.259Z,19.23
2018-10-03T16:30:14.738Z,19.16
2018-10-03T16:32:50.387Z,19.26
2018-10-03T16:35:22.312Z,19.10
2018-10-03T16:37:52.890Z,18.96
2018-10-03T16:40:23.415Z,18.78
2018-10-03T16:42:58.357Z,18.69
2018-10-03T16:45:27.764Z,18.62
2018-10-03T16:48:09.545Z,18.47
2018-10-03T16:50:39.757Z,18.42
2018-10-03T16:53:09.027Z,18.40
2018-10-03T16:55:38.273Z,18.44
2018-10-03T16:58:08.159Z,18.33
2018-10-03T17:00:38.656Z,18.21
2018-10-03T17:03:15.639Z,18.19
2018-10-03T17:05:45.148Z,18.12
2018-10-03T17:08:14.402Z,17.97
2018-10-03T17:10:44.065Z,17.91
2018-10-03T17:13:18.997Z,17.86
2018-10-03T17:15:48.029Z,17.79
2018-10-03T17:18:17.127Z,17.76
2018-10-03T17:20:46.337Z,17.73
2018-10-03T17:23:15.526Z,17.64
2018-10-03T17:25:44.761Z,17.60
2018-10-03T17:28:21.142Z,17.58
2018-10-03T17:30:51.595Z,17.52
2018-10-03T17:33:20.842Z,17.38
2018-10-03T17:35:50.042Z,17.30
2018-10-03T17:38:19.233Z,17.19
2018-10-03T17:40:48.702Z,17.15
2018-10-03T17:43:17.879Z,17.11
2018-10-03T17:45:46.992Z,17.07
2018-10-03T17:48:16.164Z,16.98
2018-10-03T17:50:45.303Z,16.89
2018-10-03T17:53:14.501Z,16.81
2018-10-03T17:55:43.694Z,16.78
2018-10-03T17:58:12.783Z,16.72
2018-10-03T18:00:42.016Z,16.68
2018-10-03T18:03:16.990Z,16.67
2018-10-03T18:05:46.373Z,16.68
2018-10-03T18:08:15.518Z,16.63
2018-10-03T18:10:44.843Z,16.65
2018-10-03T18:13:13.932Z,16.60
2018-10-03T18:15:43.064Z,16.59
2018-10-03T18:18:12.214Z,16.54
2018-10-03T18:20:41.333Z,16.45
2018-10-03T18:23:10.768Z,16.37
2018-10-03T18:25:40.076Z,16.32
2018-10-03T18:28:09.318Z,16.32
2018-10-03T18:30:38.485Z,16.34
2018-10-03T18:33:08.263Z,16.31
2018-10-03T18:35:37.490Z,16.18
2018-10-03T18:38:06.692Z,16.16
2018-10-03T18:40:35.974Z,16.10
2018-10-03T18:43:05.377Z,16.05
2018-10-03T18:45:36.240Z,16.02
2018-10-03T18:48:06.610Z,16.01
2018-10-03T18:50:35.668Z,16.03
2018-10-03T18:53:05.557Z,16.03
2018-10-03T18:55:34.590Z,15.99
2018-10-03T18:58:03.713Z,15.93
2018-10-03T19:00:32.920Z,15.86
2018-10-03T19:03:01.993Z,15.78
2018-10-03T19:05:31.485Z,15.62
2018-10-03T19:08:02.858Z,15.49
2018-10-03T19:10:42.251Z,15.36
2018-10-03T19:13:37.278Z,15.15
2018-10-03T19:16:12.830Z,15.06
2018-10-03T19:19:25.476Z,14.89
2018-10-03T19:22:24.868Z,14.75
2018-10-03T19:24:54.002Z,14.63
2018-10-03T19:27:53.447Z,14.70
2018-10-03T19:30:26.478Z,14.74
2018-10-03T19:32:56.378Z,14.76
2018-10-03T19:35:26.181Z,14.68
2018-10-03T19:37:56.047Z,14.70
2018-10-03T19:40:26.082Z,14.82
2018-10-03T19:42:58.479Z,14.89
2018-10-03T19:45:39.452Z,14.89
2018-10-03T19:48:10.405Z,14.92
2018-10-03T19:50:40.932Z,14.74
2018-10-03T19:53:10.666Z,14.87
2018-10-03T19:58:33.378Z,14.86
2018-10-03T20:01:14.322Z,14.83
2018-10-03T20:03:45.440Z,14.81
2018-10-03T20:06:16.306Z,14.75
2018-10-03T20:08:50.830Z,14.60
2018-10-03T20:11:26.470Z,14.64
2018-10-03T23:03:14.779Z,13.90
2018-10-03T23:05:43.888Z,13.88
2018-10-03T23:08:13.157Z,13.79
2018-10-03T23:10:42.381Z,13.70
2018-10-03T23:13:11.573Z,13.71
2018-10-03T23:15:40.796Z,13.72
2018-10-03T23:18:42.429Z,13.70
2018-10-03T23:21:11.914Z,13.62
2018-10-03T23:23:41.651Z,13.68
2018-10-03T23:26:10.842Z,13.65
2018-10-03T23:28:42.300Z,13.65
2018-10-03T23:31:11.505Z,13.67
2018-10-03T23:33:40.762Z,13.61
2018-10-03T23:36:09.911Z,13.67
2018-10-03T23:38:39.088Z,13.68
2018-10-03T23:41:08.494Z,13.58
2018-10-03T23:43:37.712Z,13.63
2018-10-03T23:46:07.836Z,13.70
2018-10-03T23:48:37.019Z,13.58
2018-10-03T23:51:06.250Z,13.42
2018-10-03T23:53:35.420Z,13.40
2018-10-03T23:56:04.584Z,13.37
2018-10-03T23:58:33.879Z,13.33
